sensor_id;sensor_type;location;lat;lon;timestamp;pressure;altitude;pressure_sealevel;temperature;humidity
61357;BME280;47227;46.752;23.576;2022-09-09T03:41:09;96334.94;;;16.11;83.64
61357;BME280;47227;46.752;23.576;2022-09-09T04:09:36;96345.44;;;16.09;83.32
61357;BME280;47227;46.752;23.576;2022-09-09T04:26:14;96315.60;;;15.99;83.48
61357;BME280;47227;46.752;23.576;2022-09-09T04:59:34;96267.98;;;16.48;85.91
61357;BME280;47227;46.752;23.576;2022-09-09T05:03:10;96260.54;;;16.50;85.73
61357;BME280;47227;46.752;23.576;2022-09-09T05:09:50;96288.35;;;16.69;84.72
61357;BME280;47227;46.752;23.576;2022-09-09T05:55:28;96229.88;;;16.54;92.79
61357;BME280;47227;46.752;23.576;2022-09-09T05:57:56;96216.39;;;16.60;91.74
61357;BME280;47227;46.752;23.576;2022-09-09T06:00:25;96209.79;;;16.66;91.00
61357;BME280;47227;46.752;23.576;2022-09-09T06:14:46;96232.55;;;16.94;91.23
61357;BME280;47227;46.752;23.576;2022-09-09T06:21:34;96256.48;;;16.99;89.10
61357;BME280;47227;46.752;23.576;2022-09-09T06:24:47;96246.90;;;16.98;90.50
61357;BME280;47227;46.752;23.576;2022-09-09T06:31:45;96241.94;;;16.86;91.32
61357;BME280;47227;46.752;23.576;2022-09-09T06:38:42;96245.48;;;17.05;89.65
61357;BME280;47227;46.752;23.576;2022-09-09T06:52:41;96226.92;;;17.41;88.13
61357;BME280;47227;46.752;23.576;2022-09-09T06:56:42;96233.77;;;17.56;87.68
61357;BME280;47227;46.752;23.576;2022-09-09T06:59:17;96238.18;;;17.64;87.40
61357;BME280;47227;46.752;23.576;2022-09-09T07:01:49;96235.80;;;17.73;87.53
61357;BME280;47227;46.752;23.576;2022-09-09T07:04:25;96235.88;;;17.77;87.82
61357;BME280;47227;46.752;23.576;2022-09-09T07:06:55;96242.95;;;17.76;87.65
61357;BME280;47227;46.752;23.576;2022-09-09T07:09:29;96242.02;;;17.75;87.53
61357;BME280;47227;46.752;23.576;2022-09-09T07:15:51;96237.81;;;17.94;87.18
61357;BME280;47227;46.752;23.576;2022-09-09T07:18:35;96238.23;;;17.91;87.90
61357;BME280;47227;46.752;23.576;2022-09-09T07:25:46;96250.06;;;18.17;87.23
61357;BME280;47227;46.752;23.576;2022-09-09T07:38:46;96259.99;;;18.53;86.11
61357;BME280;47227;46.752;23.576;2022-09-09T07:51:51;96264.63;;;18.78;84.39
61357;BME280;47227;46.752;23.576;2022-09-09T07:56:06;96267.69;;;18.79;83.99
61357;BME280;47227;46.752;23.576;2022-09-09T08:04:10;96261.81;;;19.16;83.64
61357;BME280;47227;46.752;23.576;2022-09-09T08:08:55;96259.56;;;19.16;83.13
61357;BME280;47227;46.752;23.576;2022-09-09T08:16:15;96264.52;;;19.13;84.29
61357;BME280;47227;46.752;23.576;2022-09-09T08:26:45;96262.34;;;19.70;83.32
61357;BME280;47227;46.752;23.576;2022-09-09T08:30:47;96255.52;;;20.04;81.54
61357;BME280;47227;46.752;23.576;2022-09-09T08:54:56;96266.51;;;21.05;75.90
61357;BME280;47227;46.752;23.576;2022-09-09T09:09:21;96285.55;;;21.20;74.87
61357;BME280;47227;46.752;23.576;2022-09-09T09:36:45;96273.70;;;20.40;76.36
61357;BME280;47227;46.752;23.576;2022-09-09T09:47:06;96271.48;;;20.67;75.72
61357;BME280;47227;46.752;23.576;2022-09-09T09:50:21;96270.64;;;20.85;75.08
61357;BME280;47227;46.752;23.576;2022-09-09T09:57:08;96268.10;;;21.17;73.76
61357;BME280;47227;46.752;23.576;2022-09-09T10:07:41;96267.48;;;21.13;73.19
61357;BME280;47227;46.752;23.576;2022-09-09T10:31:56;96270.93;;;20.84;74.17
61357;BME280;47227;46.752;23.576;2022-09-09T10:34:56;96276.64;;;20.91;74.68
61357;BME280;47227;46.752;23.576;2022-09-09T10:37:41;96277.58;;;20.88;74.77
61357;BME280;47227;46.752;23.576;2022-09-09T10:40:31;96279.39;;;20.70;75.14
61357;BME280;47227;46.752;23.576;2022-09-09T10:43:39;96283.95;;;20.65;75.20
61357;BME280;47227;46.752;23.576;2022-09-09T10:46:36;96287.25;;;20.66;75.36
61357;BME280;47227;46.752;23.576;2022-09-09T10:49:43;96284.72;;;20.70;75.58
61357;BME280;47227;46.752;23.576;2022-09-09T10:52:23;96294.96;;;20.70;75.15
61357;BME280;47227;46.752;23.576;2022-09-09T10:55:17;96295.92;;;20.64;75.52
61357;BME280;47227;46.752;23.576;2022-09-09T10:57:58;96298.67;;;20.58;75.97
61357;BME280;47227;46.752;23.576;2022-09-09T11:00:46;96297.75;;;20.67;75.09
61357;BME280;47227;46.752;23.576;2022-09-09T11:04:00;96297.25;;;20.85;74.15
61357;BME280;47227;46.752;23.576;2022-09-09T11:07:22;96292.99;;;21.19;74.13
61357;BME280;47227;46.752;23.576;2022-09-09T11:11:03;96294.62;;;21.45;72.40
61357;BME280;47227;46.752;23.576;2022-09-09T11:13:54;96290.31;;;21.49;71.82
61357;BME280;47227;46.752;23.576;2022-09-09T11:16:35;96289.00;;;21.42;71.75
61357;BME280;47227;46.752;23.576;2022-09-09T11:19:26;96294.34;;;21.49;71.85
61357;BME280;47227;46.752;23.576;2022-09-09T11:22:23;96297.00;;;21.65;71.36
61357;BME280;47227;46.752;23.576;2022-09-09T11:32:37;96293.83;;;21.49;71.56
61357;BME280;47227;46.752;23.576;2022-09-09T11:40:00;96293.82;;;21.58;71.85
61357;BME280;47227;46.752;23.576;2022-09-09T12:00:44;96291.92;;;21.97;71.18
61357;BME280;47227;46.752;23.576;2022-09-09T12:04:17;96287.38;;;21.91;70.75
61357;BME280;47227;46.752;23.576;2022-09-09T12:07:34;96280.55;;;21.96;70.94
61357;BME280;47227;46.752;23.576;2022-09-09T12:10:34;96281.45;;;21.99;70.84
61357;BME280;47227;46.752;23.576;2022-09-09T12:13:24;96281.98;;;21.95;70.68
61357;BME280;47227;46.752;23.576;2022-09-09T12:16:33;96281.23;;;22.09;70.84
61357;BME280;47227;46.752;23.576;2022-09-09T12:19:42;96279.56;;;22.32;70.62
61357;BME280;47227;46.752;23.576;2022-09-09T12:39:56;96252.36;;;22.99;67.69
61357;BME280;47227;46.752;23.576;2022-09-09T12:58:30;96233.31;;;24.08;63.73
61357;BME280;47227;46.752;23.576;2022-09-09T13:02:21;96222.91;;;24.64;62.09
61357;BME280;47227;46.752;23.576;2022-09-09T13:12:55;96219.23;;;25.18;58.51
61357;BME280;47227;46.752;23.576;2022-09-09T13:15:36;96217.23;;;25.39;58.80
61357;BME280;47227;46.752;23.576;2022-09-09T13:18:46;96216.21;;;25.84;57.64
61357;BME280;47227;46.752;23.576;2022-09-09T13:22:14;96214.59;;;26.05;55.68
61357;BME280;47227;46.752;23.576;2022-09-09T13:26:20;96225.45;;;26.14;55.80
61357;BME280;47227;46.752;23.576;2022-09-09T13:30:19;96235.77;;;26.02;55.10
61357;BME280;47227;46.752;23.576;2022-09-09T13:37:24;96234.18;;;25.39;56.60
61357;BME280;47227;46.752;23.576;2022-09-09T13:39:58;96234.70;;;25.15;57.20
61357;BME280;47227;46.752;23.576;2022-09-09T13:52:45;96229.41;;;24.29;59.81
61357;BME280;47227;46.752;23.576;2022-09-09T13:58:48;96228.19;;;24.01;60.46
61357;BME280;47227;46.752;23.576;2022-09-09T14:01:44;96229.11;;;23.84;61.09
61357;BME280;47227;46.752;23.576;2022-09-09T14:04:20;96223.12;;;23.65;61.42
61357;BME280;47227;46.752;23.576;2022-09-09T14:07:44;96225.20;;;23.45;61.74
61357;BME280;47227;46.752;23.576;2022-09-09T14:11:22;96234.42;;;23.21;62.38
61357;BME280;47227;46.752;23.576;2022-09-09T14:14:21;96238.97;;;23.02;62.91
61357;BME280;47227;46.752;23.576;2022-09-09T14:16:49;96237.11;;;22.88;63.39
61357;BME280;47227;46.752;23.576;2022-09-09T14:19:18;96231.72;;;22.74;64.44
61357;BME280;47227;46.752;23.576;2022-09-09T14:21:48;96229.29;;;22.57;64.79
61357;BME280;47227;46.752;23.576;2022-09-09T14:24:56;96233.20;;;22.44;65.25
61357;BME280;47227;46.752;23.576;2022-09-09T14:27:44;96230.05;;;22.31;65.67
61357;BME280;47227;46.752;23.576;2022-09-09T14:30:18;96238.13;;;22.19;65.86
61357;BME280;47227;46.752;23.576;2022-09-09T14:33:28;96240.04;;;22.05;66.17
61357;BME280;47227;46.752;23.576;2022-09-09T14:36:10;96246.74;;;21.94;66.96
61357;BME280;47227;46.752;23.576;2022-09-09T14:42:02;96252.13;;;21.72;67.41
61357;BME280;47227;46.752;23.576;2022-09-09T14:54:45;96252.61;;;21.28;72.09
61357;BME280;47227;46.752;23.576;2022-09-09T15:00:37;96256.85;;;20.95;73.22
61357;BME280;47227;46.752;23.576;2022-09-09T15:03:33;96250.09;;;20.69;75.63
61357;BME280;47227;46.752;23.576;2022-09-09T15:06:25;96245.92;;;20.47;79.68
61357;BME280;47227;46.752;23.576;2022-09-09T15:12:21;96238.75;;;20.18;79.46
61357;BME280;47227;46.752;23.576;2022-09-09T15:14:52;96236.05;;;20.11;79.05
61357;BME280;47227;46.752;23.576;2022-09-09T15:17:24;96234.06;;;20.07;79.45
61357;BME280;47227;46.752;23.576;2022-09-09T15:19:53;96232.75;;;20.06;79.07
61357;BME280;47227;46.752;23.576;2022-09-09T15:22:23;96228.33;;;20.06;78.93
61357;BME280;47227;46.752;23.576;2022-09-09T15:24:54;96231.35;;;20.09;78.72
61357;BME280;47227;46.752;23.576;2022-09-09T15:35:40;96234.60;;;20.09;78.85
61357;BME280;47227;46.752;23.576;2022-09-09T15:39:24;96235.73;;;20.01;78.49
61357;BME280;47227;46.752;23.576;2022-09-09T15:42:58;96239.70;;;19.98;79.98
61357;BME280;47227;46.752;23.576;2022-09-09T15:49:27;96240.64;;;19.87;80.20
61357;BME280;47227;46.752;23.576;2022-09-09T15:52:56;96240.86;;;19.76;81.17
61357;BME280;47227;46.752;23.576;2022-09-09T15:55:28;96244.02;;;19.72;80.06
61357;BME280;47227;46.752;23.576;2022-09-09T15:57:57;96239.73;;;19.70;79.66
61357;BME280;47227;46.752;23.576;2022-09-09T16:01:09;96245.00;;;19.70;79.72
61357;BME280;47227;46.752;23.576;2022-09-09T16:47:14;96254.03;;;19.60;85.75
61357;BME280;47227;46.752;23.576;2022-09-09T16:49:42;96253.89;;;19.57;85.04
61357;BME280;47227;46.752;23.576;2022-09-09T16:52:15;96254.20;;;19.53;84.30
61357;BME280;47227;46.752;23.576;2022-09-09T16:54:48;96253.92;;;19.49;84.28
61357;BME280;47227;46.752;23.576;2022-09-09T16:57:17;96257.39;;;19.43;83.86
61357;BME280;47227;46.752;23.576;2022-09-09T16:59:45;96257.33;;;19.34;83.87
61357;BME280;47227;46.752;23.576;2022-09-09T17:02:13;96257.09;;;19.26;84.77
61357;BME280;47227;46.752;23.576;2022-09-09T17:04:42;96252.04;;;19.17;84.85
61357;BME280;47227;46.752;23.576;2022-09-09T17:13:10;96264.18;;;18.94;85.05
61357;BME280;47227;46.752;23.576;2022-09-09T17:16:34;96267.83;;;18.88;84.58
61357;BME280;47227;46.752;23.576;2022-09-09T17:29:47;96271.16;;;18.88;85.27
61357;BME280;47227;46.752;23.576;2022-09-09T17:56:22;96275.18;;;18.92;85.77
61357;BME280;47227;46.752;23.576;2022-09-09T18:09:36;96275.52;;;18.95;86.07
61357;BME280;47227;46.752;23.576;2022-09-09T18:26:25;96283.16;;;18.58;86.99
61357;BME280;47227;46.752;23.576;2022-09-09T18:32:50;96278.85;;;18.48;86.44
61357;BME280;47227;46.752;23.576;2022-09-09T18:36:05;96279.70;;;18.46;86.53
61357;BME280;47227;46.752;23.576;2022-09-09T18:38:39;96272.87;;;18.44;86.50
61357;BME280;47227;46.752;23.576;2022-09-09T18:41:27;96269.95;;;18.44;86.50
61357;BME280;47227;46.752;23.576;2022-09-09T18:43:58;96269.19;;;18.43;86.53
61357;BME280;47227;46.752;23.576;2022-09-09T18:46:29;96274.22;;;18.43;86.77
61357;BME280;47227;46.752;23.576;2022-09-09T18:48:57;96281.78;;;18.45;86.85
61357;BME280;47227;46.752;23.576;2022-09-09T18:51:28;96279.70;;;18.47;86.94
61357;BME280;47227;46.752;23.576;2022-09-09T18:53:59;96278.73;;;18.51;89.12
61357;BME280;47227;46.752;23.576;2022-09-09T18:56:29;96278.02;;;18.54;88.76
61357;BME280;47227;46.752;23.576;2022-09-09T18:58:59;96275.98;;;18.56;88.12
61357;BME280;47227;46.752;23.576;2022-09-09T19:01:28;96270.16;;;18.57;87.74
61357;BME280;47227;46.752;23.576;2022-09-09T19:03:57;96265.17;;;18.56;89.29
61357;BME280;47227;46.752;23.576;2022-09-09T19:06:28;96265.11;;;18.52;88.23
61357;BME280;47227;46.752;23.576;2022-09-09T19:08:57;96266.89;;;18.51;88.02
61357;BME280;47227;46.752;23.576;2022-09-09T19:11:31;96262.48;;;18.50;87.99
61357;BME280;47227;46.752;23.576;2022-09-09T19:14:03;96259.70;;;18.49;87.84
61357;BME280;47227;46.752;23.576;2022-09-09T19:16:33;96256.98;;;18.48;87.90
61357;BME280;47227;46.752;23.576;2022-09-09T19:19:05;96255.27;;;18.45;87.65
61357;BME280;47227;46.752;23.576;2022-09-09T19:21:36;96247.21;;;18.44;88.51
61357;BME280;47227;46.752;23.576;2022-09-09T19:24:10;96242.66;;;18.41;88.14
61357;BME280;47227;46.752;23.576;2022-09-09T19:26:42;96242.38;;;18.40;87.98
61357;BME280;47227;46.752;23.576;2022-09-09T19:29:14;96250.34;;;18.40;88.02
61357;BME280;47227;46.752;23.576;2022-09-09T19:31:43;96256.63;;;18.39;87.56
61357;BME280;47227;46.752;23.576;2022-09-09T19:34:33;96257.04;;;18.29;87.50
61357;BME280;47227;46.752;23.576;2022-09-09T19:37:01;96259.76;;;18.21;87.29
61357;BME280;47227;46.752;23.576;2022-09-09T19:39:29;96252.81;;;18.11;87.67
61357;BME280;47227;46.752;23.576;2022-09-09T19:41:59;96245.59;;;18.04;87.81
61357;BME280;47227;46.752;23.576;2022-09-09T19:44:27;96243.64;;;18.00;87.87
61357;BME280;47227;46.752;23.576;2022-09-09T19:46:55;96241.59;;;17.96;88.10
61357;BME280;47227;46.752;23.576;2022-09-09T19:49:26;96241.83;;;17.89;88.14
61357;BME280;47227;46.752;23.576;2022-09-09T19:51:54;96236.57;;;17.85;88.12
61357;BME280;47227;46.752;23.576;2022-09-09T19:54:22;96234.88;;;17.82;88.48
61357;BME280;47227;46.752;23.576;2022-09-09T19:56:50;96233.68;;;17.78;89.26
61357;BME280;47227;46.752;23.576;2022-09-09T19:59:18;96238.84;;;17.77;88.91
61357;BME280;47227;46.752;23.576;2022-09-09T20:01:46;96236.55;;;17.78;91.77
61357;BME280;47227;46.752;23.576;2022-09-09T20:04:14;96235.92;;;17.78;90.74
61357;BME280;47227;46.752;23.576;2022-09-09T20:06:44;96237.88;;;17.78;90.22
61357;BME280;47227;46.752;23.576;2022-09-09T20:09:14;96235.22;;;17.79;89.99
61357;BME280;47227;46.752;23.576;2022-09-09T20:11:44;96232.08;;;17.79;89.89
61357;BME280;47227;46.752;23.576;2022-09-09T20:14:14;96235.27;;;17.77;89.71
61357;BME280;47227;46.752;23.576;2022-09-09T20:16:42;96233.73;;;17.78;89.97
61357;BME280;47227;46.752;23.576;2022-09-09T20:19:13;96232.66;;;17.79;90.99
61357;BME280;47227;46.752;23.576;2022-09-09T20:21:45;96235.42;;;17.80;90.21
61357;BME280;47227;46.752;23.576;2022-09-09T20:24:20;96228.46;;;17.84;90.02
61357;BME280;47227;46.752;23.576;2022-09-09T20:26:50;96225.65;;;17.89;90.47
61357;BME280;47227;46.752;23.576;2022-09-09T20:29:19;96230.34;;;17.90;90.08
61357;BME280;47227;46.752;23.576;2022-09-09T20:31:47;96230.57;;;17.93;90.20
61357;BME280;47227;46.752;23.576;2022-09-09T20:34:18;96229.55;;;17.97;90.08
61357;BME280;47227;46.752;23.576;2022-09-09T20:36:48;96223.80;;;17.97;89.69
61357;BME280;47227;46.752;23.576;2022-09-09T21:03:22;96221.68;;;17.94;95.67
61357;BME280;47227;46.752;23.576;2022-09-09T21:05:50;96220.33;;;17.87;94.81
61357;BME280;47227;46.752;23.576;2022-09-09T21:08:18;96220.89;;;17.82;94.57
61357;BME280;47227;46.752;23.576;2022-09-09T21:10:46;96221.98;;;17.77;96.09
61357;BME280;47227;46.752;23.576;2022-09-09T21:13:14;96216.53;;;17.70;95.48
61357;BME280;47227;46.752;23.576;2022-09-09T21:15:44;96215.43;;;17.66;96.34
61357;BME280;47227;46.752;23.576;2022-09-09T21:18:13;96219.59;;;17.62;96.79
61357;BME280;47227;46.752;23.576;2022-09-09T21:20:42;96222.86;;;17.58;95.86
61357;BME280;47227;46.752;23.576;2022-09-09T21:23:11;96217.02;;;17.57;95.30
61357;BME280;47227;46.752;23.576;2022-09-09T21:25:40;96216.13;;;17.57;94.77
61357;BME280;47227;46.752;23.576;2022-09-09T21:28:09;96214.01;;;17.57;94.49
61357;BME280;47227;46.752;23.576;2022-09-09T21:30:38;96218.12;;;17.59;94.02
61357;BME280;47227;46.752;23.576;2022-09-09T22:06:59;96197.44;;;17.19;93.14
61357;BME280;47227;46.752;23.576;2022-09-09T22:14:20;96189.04;;;17.02;92.70
61357;BME280;47227;46.752;23.576;2022-09-09T22:41:56;96165.43;;;16.90;93.04
61357;BME280;47227;46.752;23.576;2022-09-09T23:05:58;96152.84;;;17.02;92.76
